sensor_id;sensor_type;location;lat;lon;timestamp;temperature;humidity
22249;DHT22;67538;52.180;5.646;2023-05-07T00:00:57;14.10;99.90
22249;DHT22;67538;52.180;5.646;2023-05-07T00:03:25;14.10;99.90
22249;DHT22;67538;52.180;5.646;2023-05-07T00:05:52;14.00;99.90
22249;DHT22;67538;52.180;5.646;2023-05-07T00:08:19;14.10;99.90
22249;DHT22;67538;52.180;5.646;2023-05-07T00:10:47;14.10;99.90
22249;DHT22;67538;52.180;5.646;2023-05-07T00:13:14;14.10;99.90
22249;DHT22;67538;52.180;5.646;2023-05-07T00:15:42;14.10;99.90
22249;DHT22;67538;52.180;5.646;2023-05-07T00:18:09;14.10;99.90
22249;DHT22;67538;52.180;5.646;2023-05-07T00:20:37;14.10;99.90
22249;DHT22;67538;52.180;5.646;2023-05-07T00:23:04;14.10;99.90
22249;DHT22;67538;52.180;5.646;2023-05-07T00:25:31;14.10;99.90
22249;DHT22;67538;52.180;5.646;2023-05-07T00:27:58;14.10;99.90
22249;DHT22;67538;52.180;5.646;2023-05-07T00:30:29;14.10;99.90
22249;DHT22;67538;52.180;5.646;2023-05-07T00:32:57;14.10;99.90
22249;DHT22;67538;52.180;5.646;2023-05-07T00:35:24;14.10;99.90
22249;DHT22;67538;52.180;5.646;2023-05-07T00:37:51;14.10;99.90
22249;DHT22;67538;52.180;5.646;2023-05-07T00:40:18;14.10;99.90
22249;DHT22;67538;52.180;5.646;2023-05-07T00:42:46;14.10;99.90
22249;DHT22;67538;52.180;5.646;2023-05-07T00:45:14;14.10;99.90
22249;DHT22;67538;52.180;5.646;2023-05-07T00:47:42;14.00;99.90
22249;DHT22;67538;52.180;5.646;2023-05-07T00:50:11;14.00;99.90
22249;DHT22;67538;52.180;5.646;2023-05-07T00:52:38;14.00;99.90
22249;DHT22;67538;52.180;5.646;2023-05-07T00:55:07;14.00;99.90
22249;DHT22;67538;52.180;5.646;2023-05-07T00:57:36;14.00;99.90
22249;DHT22;67538;52.180;5.646;2023-05-07T01:00:04;14.00;99.90
22249;DHT22;67538;52.180;5.646;2023-05-07T01:02:32;14.00;99.90
22249;DHT22;67538;52.180;5.646;2023-05-07T01:05:00;13.90;99.90
22249;DHT22;67538;52.180;5.646;2023-05-07T01:07:31;14.00;99.90
22249;DHT22;67538;52.180;5.646;2023-05-07T01:09:59;14.00;99.90
22249;DHT22;67538;52.180;5.646;2023-05-07T01:12:27;13.90;99.90
22249;DHT22;67538;52.180;5.646;2023-05-07T01:14:55;13.90;99.90
22249;DHT22;67538;52.180;5.646;2023-05-07T01:17:22;13.80;99.90
22249;DHT22;67538;52.180;5.646;2023-05-07T01:19:49;13.80;99.90
22249;DHT22;67538;52.180;5.646;2023-05-07T01:22:28;13.80;99.90
22249;DHT22;67538;52.180;5.646;2023-05-07T01:24:55;13.80;99.90
22249;DHT22;67538;52.180;5.646;2023-05-07T01:27:22;13.80;99.90
22249;DHT22;67538;52.180;5.646;2023-05-07T01:29:50;13.70;99.90
22249;DHT22;67538;52.180;5.646;2023-05-07T01:32:19;13.70;99.90
22249;DHT22;67538;52.180;5.646;2023-05-07T01:34:48;13.70;99.90
22249;DHT22;67538;52.180;5.646;2023-05-07T01:37:17;13.60;99.90
22249;DHT22;67538;52.180;5.646;2023-05-07T01:39:45;13.60;99.90
22249;DHT22;67538;52.180;5.646;2023-05-07T01:42:13;13.50;99.90
22249;DHT22;67538;52.180;5.646;2023-05-07T01:44:40;13.60;99.90
22249;DHT22;67538;52.180;5.646;2023-05-07T01:47:08;13.50;99.90
22249;DHT22;67538;52.180;5.646;2023-05-07T01:49:36;13.50;99.90
22249;DHT22;67538;52.180;5.646;2023-05-07T01:52:03;13.60;99.90
22249;DHT22;67538;52.180;5.646;2023-05-07T01:54:30;13.60;99.90
22249;DHT22;67538;52.180;5.646;2023-05-07T01:56:59;13.60;99.90
22249;DHT22;67538;52.180;5.646;2023-05-07T01:59:26;13.60;99.90
22249;DHT22;67538;52.180;5.646;2023-05-07T02:01:53;13.60;99.90
22249;DHT22;67538;52.180;5.646;2023-05-07T02:04:20;13.60;99.90
22249;DHT22;67538;52.180;5.646;2023-05-07T02:06:47;13.60;99.90
22249;DHT22;67538;52.180;5.646;2023-05-07T02:09:14;13.50;99.90
22249;DHT22;67538;52.180;5.646;2023-05-07T02:11:41;13.60;99.90
22249;DHT22;67538;52.180;5.646;2023-05-07T02:14:10;13.50;99.90
22249;DHT22;67538;52.180;5.646;2023-05-07T02:16:37;13.50;99.90
22249;DHT22;67538;52.180;5.646;2023-05-07T02:19:04;13.50;99.90
22249;DHT22;67538;52.180;5.646;2023-05-07T02:21:31;13.50;99.90
22249;DHT22;67538;52.180;5.646;2023-05-07T02:23:58;13.50;99.90
22249;DHT22;67538;52.180;5.646;2023-05-07T02:26:26;13.40;99.90
22249;DHT22;67538;52.180;5.646;2023-05-07T02:28:53;13.50;99.90
22249;DHT22;67538;52.180;5.646;2023-05-07T02:31:21;13.40;99.90
22249;DHT22;67538;52.180;5.646;2023-05-07T02:33:48;13.40;99.90
22249;DHT22;67538;52.180;5.646;2023-05-07T02:36:15;13.40;99.90
22249;DHT22;67538;52.180;5.646;2023-05-07T02:38:42;13.40;99.90
22249;DHT22;67538;52.180;5.646;2023-05-07T02:41:09;13.30;99.90
22249;DHT22;67538;52.180;5.646;2023-05-07T02:43:36;13.30;99.90
22249;DHT22;67538;52.180;5.646;2023-05-07T02:46:04;13.30;99.90
22249;DHT22;67538;52.180;5.646;2023-05-07T02:48:33;13.40;99.90
22249;DHT22;67538;52.180;5.646;2023-05-07T02:51:00;13.40;99.90
22249;DHT22;67538;52.180;5.646;2023-05-07T02:53:27;13.40;99.90
22249;DHT22;67538;52.180;5.646;2023-05-07T02:55:56;13.40;99.90
22249;DHT22;67538;52.180;5.646;2023-05-07T02:58:24;13.40;99.90
22249;DHT22;67538;52.180;5.646;2023-05-07T03:00:51;13.40;99.90
22249;DHT22;67538;52.180;5.646;2023-05-07T03:03:18;13.40;99.90
22249;DHT22;67538;52.180;5.646;2023-05-07T03:05:47;13.40;99.90
22249;DHT22;67538;52.180;5.646;2023-05-07T03:08:14;13.40;99.90
22249;DHT22;67538;52.180;5.646;2023-05-07T03:10:41;13.40;99.90
22249;DHT22;67538;52.180;5.646;2023-05-07T03:13:08;13.40;99.90
22249;DHT22;67538;52.180;5.646;2023-05-07T03:15:35;13.40;99.90
22249;DHT22;67538;52.180;5.646;2023-05-07T03:18:02;13.40;99.90
22249;DHT22;67538;52.180;5.646;2023-05-07T03:20:29;13.40;99.90
22249;DHT22;67538;52.180;5.646;2023-05-07T03:22:57;13.40;99.90
22249;DHT22;67538;52.180;5.646;2023-05-07T03:25:24;13.30;99.90
22249;DHT22;67538;52.180;5.646;2023-05-07T03:27:51;13.40;99.90
22249;DHT22;67538;52.180;5.646;2023-05-07T03:30:18;13.40;99.90
22249;DHT22;67538;52.180;5.646;2023-05-07T03:32:46;13.40;99.90
22249;DHT22;67538;52.180;5.646;2023-05-07T03:35:13;13.40;99.90
22249;DHT22;67538;52.180;5.646;2023-05-07T03:37:40;13.40;99.90
22249;DHT22;67538;52.180;5.646;2023-05-07T03:40:09;13.40;99.90
22249;DHT22;67538;52.180;5.646;2023-05-07T03:42:37;13.40;99.90
22249;DHT22;67538;52.180;5.646;2023-05-07T03:45:05;13.40;99.90
22249;DHT22;67538;52.180;5.646;2023-05-07T03:47:33;13.40;99.90
22249;DHT22;67538;52.180;5.646;2023-05-07T03:50:00;13.40;99.90
22249;DHT22;67538;52.180;5.646;2023-05-07T03:52:27;13.40;99.90
22249;DHT22;67538;52.180;5.646;2023-05-07T03:54:54;13.40;99.90
22249;DHT22;67538;52.180;5.646;2023-05-07T03:57:22;13.30;99.90
22249;DHT22;67538;52.180;5.646;2023-05-07T03:59:49;13.30;99.90
22249;DHT22;67538;52.180;5.646;2023-05-07T04:02:16;13.30;99.90
22249;DHT22;67538;52.180;5.646;2023-05-07T04:04:43;13.30;99.90
22249;DHT22;67538;52.180;5.646;2023-05-07T04:07:10;13.30;99.90
22249;DHT22;67538;52.180;5.646;2023-05-07T04:09:37;13.40;99.90
22249;DHT22;67538;52.180;5.646;2023-05-07T04:12:04;13.40;99.90
22249;DHT22;67538;52.180;5.646;2023-05-07T04:14:34;13.40;99.90
22249;DHT22;67538;52.180;5.646;2023-05-07T04:17:01;13.30;99.90
22249;DHT22;67538;52.180;5.646;2023-05-07T04:19:28;13.40;99.90
22249;DHT22;67538;52.180;5.646;2023-05-07T04:21:55;13.40;99.90
22249;DHT22;67538;52.180;5.646;2023-05-07T04:24:22;13.40;99.90
22249;DHT22;67538;52.180;5.646;2023-05-07T04:26:49;13.40;99.90
22249;DHT22;67538;52.180;5.646;2023-05-07T04:29:17;13.40;99.90
22249;DHT22;67538;52.180;5.646;2023-05-07T04:31:45;13.50;99.90
22249;DHT22;67538;52.180;5.646;2023-05-07T04:34:12;13.50;99.90
22249;DHT22;67538;52.180;5.646;2023-05-07T04:36:39;13.60;99.90
22249;DHT22;67538;52.180;5.646;2023-05-07T04:39:06;13.60;99.90
22249;DHT22;67538;52.180;5.646;2023-05-07T04:41:35;13.60;99.90
22249;DHT22;67538;52.180;5.646;2023-05-07T04:44:02;13.70;99.90
22249;DHT22;67538;52.180;5.646;2023-05-07T04:46:31;13.70;99.90
22249;DHT22;67538;52.180;5.646;2023-05-07T04:49:00;13.80;99.90
22249;DHT22;67538;52.180;5.646;2023-05-07T04:51:27;13.70;99.90
22249;DHT22;67538;52.180;5.646;2023-05-07T04:53:54;13.80;99.90
22249;DHT22;67538;52.180;5.646;2023-05-07T04:56:21;13.80;99.90
22249;DHT22;67538;52.180;5.646;2023-05-07T04:58:48;13.80;99.90
22249;DHT22;67538;52.180;5.646;2023-05-07T05:01:15;13.90;99.90
22249;DHT22;67538;52.180;5.646;2023-05-07T05:03:42;13.90;99.90
22249;DHT22;67538;52.180;5.646;2023-05-07T05:06:10;13.90;99.90
22249;DHT22;67538;52.180;5.646;2023-05-07T05:08:37;13.90;99.90
22249;DHT22;67538;52.180;5.646;2023-05-07T05:11:04;14.00;99.90
22249;DHT22;67538;52.180;5.646;2023-05-07T05:13:31;13.90;99.90
22249;DHT22;67538;52.180;5.646;2023-05-07T05:15:58;14.00;99.90
22249;DHT22;67538;52.180;5.646;2023-05-07T05:18:25;14.00;99.90
22249;DHT22;67538;52.180;5.646;2023-05-07T05:20:52;14.00;99.90
22249;DHT22;67538;52.180;5.646;2023-05-07T05:23:21;14.00;99.90
22249;DHT22;67538;52.180;5.646;2023-05-07T05:25:48;14.10;99.90
22249;DHT22;67538;52.180;5.646;2023-05-07T05:28:15;14.10;99.90
22249;DHT22;67538;52.180;5.646;2023-05-07T05:30:42;14.10;99.90
22249;DHT22;67538;52.180;5.646;2023-05-07T05:33:09;14.10;99.90
22249;DHT22;67538;52.180;5.646;2023-05-07T05:35:36;14.20;99.90
22249;DHT22;67538;52.180;5.646;2023-05-07T05:38:03;14.20;99.90
22249;DHT22;67538;52.180;5.646;2023-05-07T05:40:31;14.20;99.90
22249;DHT22;67538;52.180;5.646;2023-05-07T05:42:59;14.20;99.90
22249;DHT22;67538;52.180;5.646;2023-05-07T05:45:26;14.20;99.90
22249;DHT22;67538;52.180;5.646;2023-05-07T05:47:53;14.30;99.90
22249;DHT22;67538;52.180;5.646;2023-05-07T05:50:20;14.30;99.90
22249;DHT22;67538;52.180;5.646;2023-05-07T05:52:47;14.30;99.90
22249;DHT22;67538;52.180;5.646;2023-05-07T05:55:14;14.40;99.90
22249;DHT22;67538;52.180;5.646;2023-05-07T05:57:43;14.30;99.90
22249;DHT22;67538;52.180;5.646;2023-05-07T06:00:10;14.30;99.90
22249;DHT22;67538;52.180;5.646;2023-05-07T06:02:38;14.40;99.90
22249;DHT22;67538;52.180;5.646;2023-05-07T06:05:05;14.40;99.90
22249;DHT22;67538;52.180;5.646;2023-05-07T06:07:32;14.50;99.90
22249;DHT22;67538;52.180;5.646;2023-05-07T06:10:00;14.50;99.90
22249;DHT22;67538;52.180;5.646;2023-05-07T06:12:27;14.50;99.90
22249;DHT22;67538;52.180;5.646;2023-05-07T06:14:55;14.60;99.90
22249;DHT22;67538;52.180;5.646;2023-05-07T06:17:22;14.60;99.90
22249;DHT22;67538;52.180;5.646;2023-05-07T06:19:49;14.70;99.90
22249;DHT22;67538;52.180;5.646;2023-05-07T06:22:16;14.70;99.90
22249;DHT22;67538;52.180;5.646;2023-05-07T06:24:43;14.70;99.90
22249;DHT22;67538;52.180;5.646;2023-05-07T06:27:11;14.80;99.90
22249;DHT22;67538;52.180;5.646;2023-05-07T06:29:38;14.80;99.90
22249;DHT22;67538;52.180;5.646;2023-05-07T06:32:11;14.90;99.90
22249;DHT22;67538;52.180;5.646;2023-05-07T06:34:39;14.90;99.90
22249;DHT22;67538;52.180;5.646;2023-05-07T06:37:07;14.90;99.90
22249;DHT22;67538;52.180;5.646;2023-05-07T06:39:34;14.90;99.90
22249;DHT22;67538;52.180;5.646;2023-05-07T06:42:01;14.90;99.90
22249;DHT22;67538;52.180;5.646;2023-05-07T06:44:30;14.90;99.90
22249;DHT22;67538;52.180;5.646;2023-05-07T06:46:57;14.90;99.90
22249;DHT22;67538;52.180;5.646;2023-05-07T06:49:25;14.90;99.90
22249;DHT22;67538;52.180;5.646;2023-05-07T06:51:52;14.90;99.90
22249;DHT22;67538;52.180;5.646;2023-05-07T06:54:19;15.10;99.90
22249;DHT22;67538;52.180;5.646;2023-05-07T06:56:47;15.30;99.90
22249;DHT22;67538;52.180;5.646;2023-05-07T06:59:14;15.50;99.90
22249;DHT22;67538;52.180;5.646;2023-05-07T07:01:41;15.80;99.90
22249;DHT22;67538;52.180;5.646;2023-05-07T07:04:08;16.00;99.90
22249;DHT22;67538;52.180;5.646;2023-05-07T07:06:36;16.20;99.90
22249;DHT22;67538;52.180;5.646;2023-05-07T07:09:03;16.40;99.90
22249;DHT22;67538;52.180;5.646;2023-05-07T07:11:30;16.40;99.90
22249;DHT22;67538;52.180;5.646;2023-05-07T07:13:57;16.40;99.90
22249;DHT22;67538;52.180;5.646;2023-05-07T07:16:24;16.30;99.90
22249;DHT22;67538;52.180;5.646;2023-05-07T07:18:51;16.20;99.90
22249;DHT22;67538;52.180;5.646;2023-05-07T07:21:18;16.10;99.90
22249;DHT22;67538;52.180;5.646;2023-05-07T07:23:47;16.00;99.90
22249;DHT22;67538;52.180;5.646;2023-05-07T07:26:14;15.90;99.90
22249;DHT22;67538;52.180;5.646;2023-05-07T07:28:44;15.90;99.90
22249;DHT22;67538;52.180;5.646;2023-05-07T07:31:11;15.70;99.90
22249;DHT22;67538;52.180;5.646;2023-05-07T07:33:38;15.60;99.90
22249;DHT22;67538;52.180;5.646;2023-05-07T07:36:06;15.50;99.90
22249;DHT22;67538;52.180;5.646;2023-05-07T07:38:33;15.50;99.90
22249;DHT22;67538;52.180;5.646;2023-05-07T07:41:02;15.50;99.90
22249;DHT22;67538;52.180;5.646;2023-05-07T07:43:29;15.50;99.90
22249;DHT22;67538;52.180;5.646;2023-05-07T07:45:56;15.60;99.90
22249;DHT22;67538;52.180;5.646;2023-05-07T07:48:23;15.60;99.90
22249;DHT22;67538;52.180;5.646;2023-05-07T07:50:50;15.70;99.90
22249;DHT22;67538;52.180;5.646;2023-05-07T07:53:17;15.80;99.90
22249;DHT22;67538;52.180;5.646;2023-05-07T07:55:45;15.90;99.90
22249;DHT22;67538;52.180;5.646;2023-05-07T07:58:13;15.90;99.90
22249;DHT22;67538;52.180;5.646;2023-05-07T08:00:40;15.90;99.90
22249;DHT22;67538;52.180;5.646;2023-05-07T08:03:09;16.00;99.90
22249;DHT22;67538;52.180;5.646;2023-05-07T08:05:36;15.90;99.90
22249;DHT22;67538;52.180;5.646;2023-05-07T08:08:04;15.90;99.90
22249;DHT22;67538;52.180;5.646;2023-05-07T08:10:32;15.90;99.90
22249;DHT22;67538;52.180;5.646;2023-05-07T08:13:00;16.00;99.90
22249;DHT22;67538;52.180;5.646;2023-05-07T08:15:30;16.00;99.90
22249;DHT22;67538;52.180;5.646;2023-05-07T08:17:58;16.10;99.90
22249;DHT22;67538;52.180;5.646;2023-05-07T08:20:25;16.20;99.90
22249;DHT22;67538;52.180;5.646;2023-05-07T08:22:52;16.20;99.90
22249;DHT22;67538;52.180;5.646;2023-05-07T08:25:19;16.20;99.90
22249;DHT22;67538;52.180;5.646;2023-05-07T08:27:46;16.20;99.90
22249;DHT22;67538;52.180;5.646;2023-05-07T08:30:14;16.10;99.90
22249;DHT22;67538;52.180;5.646;2023-05-07T08:32:43;16.10;99.90
22249;DHT22;67538;52.180;5.646;2023-05-07T08:35:10;16.00;99.90
22249;DHT22;67538;52.180;5.646;2023-05-07T08:37:37;16.00;99.90
22249;DHT22;67538;52.180;5.646;2023-05-07T08:40:05;15.90;99.90
22249;DHT22;67538;52.180;5.646;2023-05-07T08:42:35;15.80;99.90
22249;DHT22;67538;52.180;5.646;2023-05-07T08:45:04;15.70;99.90
22249;DHT22;67538;52.180;5.646;2023-05-07T08:47:42;15.70;99.90
22249;DHT22;67538;52.180;5.646;2023-05-07T08:50:12;15.70;99.90
22249;DHT22;67538;52.180;5.646;2023-05-07T08:52:40;15.80;99.90
22249;DHT22;67538;52.180;5.646;2023-05-07T08:55:08;15.80;99.90
22249;DHT22;67538;52.180;5.646;2023-05-07T08:57:36;15.90;99.90
22249;DHT22;67538;52.180;5.646;2023-05-07T09:00:03;15.90;99.90
22249;DHT22;67538;52.180;5.646;2023-05-07T09:02:32;15.80;99.90
22249;DHT22;67538;52.180;5.646;2023-05-07T09:05:00;15.80;99.90
22249;DHT22;67538;52.180;5.646;2023-05-07T09:07:28;15.80;99.90
22249;DHT22;67538;52.180;5.646;2023-05-07T09:09:57;15.80;99.90
22249;DHT22;67538;52.180;5.646;2023-05-07T09:12:25;15.80;99.90
22249;DHT22;67538;52.180;5.646;2023-05-07T09:14:52;15.90;99.90
22249;DHT22;67538;52.180;5.646;2023-05-07T09:17:19;15.90;99.90
22249;DHT22;67538;52.180;5.646;2023-05-07T09:19:46;16.00;99.90
22249;DHT22;67538;52.180;5.646;2023-05-07T09:22:13;16.10;99.90
22249;DHT22;67538;52.180;5.646;2023-05-07T09:24:47;16.20;99.90
22249;DHT22;67538;52.180;5.646;2023-05-07T09:27:14;16.20;99.90
22249;DHT22;67538;52.180;5.646;2023-05-07T09:29:42;16.30;99.90
22249;DHT22;67538;52.180;5.646;2023-05-07T09:32:10;16.50;99.90
22249;DHT22;67538;52.180;5.646;2023-05-07T09:34:37;16.60;99.90
22249;DHT22;67538;52.180;5.646;2023-05-07T09:37:04;16.80;99.90
22249;DHT22;67538;52.180;5.646;2023-05-07T09:39:43;16.80;99.90
22249;DHT22;67538;52.180;5.646;2023-05-07T09:42:11;16.70;99.90
22249;DHT22;67538;52.180;5.646;2023-05-07T09:44:40;16.70;99.90
22249;DHT22;67538;52.180;5.646;2023-05-07T09:47:07;16.70;99.90
22249;DHT22;67538;52.180;5.646;2023-05-07T09:49:36;16.60;99.90
22249;DHT22;67538;52.180;5.646;2023-05-07T09:52:04;16.60;99.90
22249;DHT22;67538;52.180;5.646;2023-05-07T09:54:35;16.60;99.90
22249;DHT22;67538;52.180;5.646;2023-05-07T09:57:05;16.50;99.90
22249;DHT22;67538;52.180;5.646;2023-05-07T09:59:33;16.50;99.90
22249;DHT22;67538;52.180;5.646;2023-05-07T10:02:01;16.50;99.90
22249;DHT22;67538;52.180;5.646;2023-05-07T10:04:31;16.40;99.90
22249;DHT22;67538;52.180;5.646;2023-05-07T10:06:59;16.50;99.90
22249;DHT22;67538;52.180;5.646;2023-05-07T10:09:26;16.50;99.90
22249;DHT22;67538;52.180;5.646;2023-05-07T10:11:54;16.50;99.90
22249;DHT22;67538;52.180;5.646;2023-05-07T10:14:23;16.40;99.90
22249;DHT22;67538;52.180;5.646;2023-05-07T10:16:51;16.50;99.90
22249;DHT22;67538;52.180;5.646;2023-05-07T10:19:20;16.50;99.90
22249;DHT22;67538;52.180;5.646;2023-05-07T10:21:55;16.50;99.90
22249;DHT22;67538;52.180;5.646;2023-05-07T10:24:26;16.60;99.90
22249;DHT22;67538;52.180;5.646;2023-05-07T10:26:55;16.70;99.90
22249;DHT22;67538;52.180;5.646;2023-05-07T10:29:39;16.80;99.90
22249;DHT22;67538;52.180;5.646;2023-05-07T10:32:26;16.90;99.90
22249;DHT22;67538;52.180;5.646;2023-05-07T10:34:59;16.90;99.90
22249;DHT22;67538;52.180;5.646;2023-05-07T10:37:27;17.00;99.90
22249;DHT22;67538;52.180;5.646;2023-05-07T10:39:55;17.00;99.90
22249;DHT22;67538;52.180;5.646;2023-05-07T10:42:23;17.00;99.90
22249;DHT22;67538;52.180;5.646;2023-05-07T10:44:51;17.10;99.90
22249;DHT22;67538;52.180;5.646;2023-05-07T10:47:18;17.20;99.90
22249;DHT22;67538;52.180;5.646;2023-05-07T10:50:20;17.40;99.90
22249;DHT22;67538;52.180;5.646;2023-05-07T10:56:29;17.70;99.90
22249;DHT22;67538;52.180;5.646;2023-05-07T11:01:53;18.00;99.90
22249;DHT22;67538;52.180;5.646;2023-05-07T11:04:20;18.30;99.90
22249;DHT22;67538;52.180;5.646;2023-05-07T11:10:03;18.60;99.90
22249;DHT22;67538;52.180;5.646;2023-05-07T11:12:53;18.70;99.90
22249;DHT22;67538;52.180;5.646;2023-05-07T11:15:37;18.80;99.90
22249;DHT22;67538;52.180;5.646;2023-05-07T11:18:06;18.70;99.90
22249;DHT22;67538;52.180;5.646;2023-05-07T11:20:50;18.80;99.90
22249;DHT22;67538;52.180;5.646;2023-05-07T11:26:46;18.60;99.90
22249;DHT22;67538;52.180;5.646;2023-05-07T11:29:15;18.50;99.90
22249;DHT22;67538;52.180;5.646;2023-05-07T11:31:42;18.50;99.90
22249;DHT22;67538;52.180;5.646;2023-05-07T11:34:12;18.50;99.90
22249;DHT22;67538;52.180;5.646;2023-05-07T11:36:42;18.70;99.90
22249;DHT22;67538;52.180;5.646;2023-05-07T11:39:24;18.80;99.90
22249;DHT22;67538;52.180;5.646;2023-05-07T11:41:51;18.70;99.90
22249;DHT22;67538;52.180;5.646;2023-05-07T11:44:18;18.80;99.90
22249;DHT22;67538;52.180;5.646;2023-05-07T11:46:45;18.80;99.90
22249;DHT22;67538;52.180;5.646;2023-05-07T11:49:14;18.90;99.90
22249;DHT22;67538;52.180;5.646;2023-05-07T11:51:41;18.90;99.90
22249;DHT22;67538;52.180;5.646;2023-05-07T11:54:08;18.90;99.90
22249;DHT22;67538;52.180;5.646;2023-05-07T11:56:37;18.90;99.90
22249;DHT22;67538;52.180;5.646;2023-05-07T11:59:04;19.00;99.90
22249;DHT22;67538;52.180;5.646;2023-05-07T12:01:32;18.90;99.90
22249;DHT22;67538;52.180;5.646;2023-05-07T12:04:03;18.90;99.90
22249;DHT22;67538;52.180;5.646;2023-05-07T12:06:36;19.00;99.90
22249;DHT22;67538;52.180;5.646;2023-05-07T12:09:04;19.00;99.90
22249;DHT22;67538;52.180;5.646;2023-05-07T12:11:32;19.10;99.90
22249;DHT22;67538;52.180;5.646;2023-05-07T12:14:00;19.10;99.90
22249;DHT22;67538;52.180;5.646;2023-05-07T12:16:27;19.10;99.90
22249;DHT22;67538;52.180;5.646;2023-05-07T12:18:55;19.10;99.90
22249;DHT22;67538;52.180;5.646;2023-05-07T12:21:24;19.10;99.90
22249;DHT22;67538;52.180;5.646;2023-05-07T12:23:53;19.00;99.90
22249;DHT22;67538;52.180;5.646;2023-05-07T12:26:20;19.10;99.90
22249;DHT22;67538;52.180;5.646;2023-05-07T12:28:47;19.10;99.90
22249;DHT22;67538;52.180;5.646;2023-05-07T12:31:14;19.20;99.90
22249;DHT22;67538;52.180;5.646;2023-05-07T12:33:42;19.30;99.90
22249;DHT22;67538;52.180;5.646;2023-05-07T12:36:12;19.50;99.90
22249;DHT22;67538;52.180;5.646;2023-05-07T12:38:40;19.50;99.90
22249;DHT22;67538;52.180;5.646;2023-05-07T12:41:09;19.60;99.90
22249;DHT22;67538;52.180;5.646;2023-05-07T12:43:38;19.80;99.90
22249;DHT22;67538;52.180;5.646;2023-05-07T12:46:07;20.00;99.90
22249;DHT22;67538;52.180;5.646;2023-05-07T12:48:37;20.10;99.90
22249;DHT22;67538;52.180;5.646;2023-05-07T12:51:05;20.40;99.90
22249;DHT22;67538;52.180;5.646;2023-05-07T12:53:33;20.50;99.90
22249;DHT22;67538;52.180;5.646;2023-05-07T12:56:02;20.50;99.90
22249;DHT22;67538;52.180;5.646;2023-05-07T12:58:35;20.50;99.90
22249;DHT22;67538;52.180;5.646;2023-05-07T13:01:05;20.60;99.90
22249;DHT22;67538;52.180;5.646;2023-05-07T13:03:33;20.60;99.90
22249;DHT22;67538;52.180;5.646;2023-05-07T13:06:02;20.60;99.90
22249;DHT22;67538;52.180;5.646;2023-05-07T13:08:31;20.70;99.90
22249;DHT22;67538;52.180;5.646;2023-05-07T13:10:59;20.80;99.90
22249;DHT22;67538;52.180;5.646;2023-05-07T13:13:29;20.70;99.90
22249;DHT22;67538;52.180;5.646;2023-05-07T13:15:57;20.70;99.90
22249;DHT22;67538;52.180;5.646;2023-05-07T13:18:25;20.60;99.90
22249;DHT22;67538;52.180;5.646;2023-05-07T13:20:52;20.50;99.90
22249;DHT22;67538;52.180;5.646;2023-05-07T13:23:20;20.40;99.90
22249;DHT22;67538;52.180;5.646;2023-05-07T13:25:48;20.30;99.90
22249;DHT22;67538;52.180;5.646;2023-05-07T13:28:15;20.30;99.90
22249;DHT22;67538;52.180;5.646;2023-05-07T13:30:42;20.40;99.90
22249;DHT22;67538;52.180;5.646;2023-05-07T13:33:10;20.40;99.90
22249;DHT22;67538;52.180;5.646;2023-05-07T13:35:37;20.50;99.90
22249;DHT22;67538;52.180;5.646;2023-05-07T13:38:04;20.50;99.90
22249;DHT22;67538;52.180;5.646;2023-05-07T13:40:31;20.50;99.90
22249;DHT22;67538;52.180;5.646;2023-05-07T13:42:59;20.50;99.90
22249;DHT22;67538;52.180;5.646;2023-05-07T13:45:27;20.40;99.90
22249;DHT22;67538;52.180;5.646;2023-05-07T13:47:55;20.40;99.90
22249;DHT22;67538;52.180;5.646;2023-05-07T13:50:24;20.30;99.90
22249;DHT22;67538;52.180;5.646;2023-05-07T13:52:52;20.20;99.90
22249;DHT22;67538;52.180;5.646;2023-05-07T13:55:20;20.10;99.90
22249;DHT22;67538;52.180;5.646;2023-05-07T13:57:53;20.10;99.90
22249;DHT22;67538;52.180;5.646;2023-05-07T14:00:21;20.10;99.90
22249;DHT22;67538;52.180;5.646;2023-05-07T14:02:48;20.00;99.90
22249;DHT22;67538;52.180;5.646;2023-05-07T14:05:15;19.90;99.90
22249;DHT22;67538;52.180;5.646;2023-05-07T14:07:43;19.90;99.90
22249;DHT22;67538;52.180;5.646;2023-05-07T14:10:10;19.80;99.90
22249;DHT22;67538;52.180;5.646;2023-05-07T14:12:38;19.70;99.90
22249;DHT22;67538;52.180;5.646;2023-05-07T14:15:06;19.60;99.90
22249;DHT22;67538;52.180;5.646;2023-05-07T14:17:34;19.50;99.90
22249;DHT22;67538;52.180;5.646;2023-05-07T14:20:01;19.50;99.90
22249;DHT22;67538;52.180;5.646;2023-05-07T14:22:28;19.40;99.90
22249;DHT22;67538;52.180;5.646;2023-05-07T14:24:56;19.30;99.90
22249;DHT22;67538;52.180;5.646;2023-05-07T14:27:23;19.30;99.90
22249;DHT22;67538;52.180;5.646;2023-05-07T14:29:51;19.30;99.90
22249;DHT22;67538;52.180;5.646;2023-05-07T14:32:18;19.30;99.90
22249;DHT22;67538;52.180;5.646;2023-05-07T14:34:45;19.20;99.90
22249;DHT22;67538;52.180;5.646;2023-05-07T14:37:13;19.20;99.90
22249;DHT22;67538;52.180;5.646;2023-05-07T14:39:40;19.10;99.90
22249;DHT22;67538;52.180;5.646;2023-05-07T14:42:08;19.10;99.90
22249;DHT22;67538;52.180;5.646;2023-05-07T14:44:35;19.00;99.90
22249;DHT22;67538;52.180;5.646;2023-05-07T14:47:02;18.90;99.90
22249;DHT22;67538;52.180;5.646;2023-05-07T14:49:29;18.80;99.90
22249;DHT22;67538;52.180;5.646;2023-05-07T14:51:57;18.80;99.90
22249;DHT22;67538;52.180;5.646;2023-05-07T14:54:25;18.70;99.90
22249;DHT22;67538;52.180;5.646;2023-05-07T14:56:52;18.70;99.90
22249;DHT22;67538;52.180;5.646;2023-05-07T14:59:20;18.60;99.90
22249;DHT22;67538;52.180;5.646;2023-05-07T15:01:47;18.50;99.90
22249;DHT22;67538;52.180;5.646;2023-05-07T15:04:14;18.50;99.90
22249;DHT22;67538;52.180;5.646;2023-05-07T15:06:41;18.40;99.90
22249;DHT22;67538;52.180;5.646;2023-05-07T15:09:08;18.30;99.90
22249;DHT22;67538;52.180;5.646;2023-05-07T15:11:35;18.30;99.90
22249;DHT22;67538;52.180;5.646;2023-05-07T15:14:03;18.20;99.90
22249;DHT22;67538;52.180;5.646;2023-05-07T15:16:31;18.20;99.90
22249;DHT22;67538;52.180;5.646;2023-05-07T15:18:59;18.10;99.90
22249;DHT22;67538;52.180;5.646;2023-05-07T15:21:26;18.10;99.90
22249;DHT22;67538;52.180;5.646;2023-05-07T15:23:53;18.10;99.90
22249;DHT22;67538;52.180;5.646;2023-05-07T15:26:20;18.20;99.90
22249;DHT22;67538;52.180;5.646;2023-05-07T15:28:47;18.20;99.90
22249;DHT22;67538;52.180;5.646;2023-05-07T15:31:15;18.20;99.90
22249;DHT22;67538;52.180;5.646;2023-05-07T15:33:44;18.20;99.90
22249;DHT22;67538;52.180;5.646;2023-05-07T15:36:11;18.30;99.90
22249;DHT22;67538;52.180;5.646;2023-05-07T15:38:38;18.30;99.90
22249;DHT22;67538;52.180;5.646;2023-05-07T15:41:05;18.30;99.90
22249;DHT22;67538;52.180;5.646;2023-05-07T15:43:32;18.20;99.90
22249;DHT22;67538;52.180;5.646;2023-05-07T15:45:59;18.20;99.90
22249;DHT22;67538;52.180;5.646;2023-05-07T15:48:26;18.20;99.90